<?xml version='1.0' encoding='UTF-8'?><gpx version="1.1" creator="JPX - https://github.com/jenetics/jpx" xmlns="http://www.topografix.com/GPX/1/1"><trk><trkseg><trkpt lat="45.70511798169841" lon="8.805061871694942"><ele>277.0</ele><time>2026-04-16T17:01:05.927Z</time></trkpt><trkpt lat="45.70517911625208" lon="8.80501974197936"><ele>277.0</ele><time>2026-04-16T17:01:09.927Z</time></trkpt><trkpt lat="45.70523740480983" lon="8.805078921412447"><ele>277.0</ele><time>2026-04-16T17:03:08Z</time></trkpt><trkpt lat="45.705284755197475" lon="8.8051897398421"><ele>277.0</ele><time>2026-04-16T17:03:10Z</time></trkpt><trkpt lat="45.70532095075497" lon="8.805294922235216"><ele>277.0</ele><time>2026-04-16T17:03:12Z</time></trkpt><trkpt lat="45.7052846368266" lon="8.805400289026785"><ele>277.0</ele><time>2026-04-16T17:03:14Z</time></trkpt><trkpt lat="45.70530087950282" lon="8.805530307191084"><ele>277.0</ele><time>2026-04-16T17:03:16Z</time></trkpt><trkpt lat="45.70535364751177" lon="8.805648901408453"><ele>277.0</ele><time>2026-04-16T17:03:18Z</time></trkpt><trkpt lat="45.705421706462566" lon="8.805706613178101"><ele>277.0</ele><time>2026-04-16T17:03:20Z</time></trkpt><trkpt lat="45.70547871281321" lon="8.80563901141035"><ele>277.0</ele><time>2026-04-16T17:03:22Z</time></trkpt><trkpt lat="45.70552742345265" lon="8.805527790775303"><ele>277.0</ele><time>2026-04-16T17:03:24Z</time></trkpt><trkpt lat="45.70558471807235" lon="8.805418169007092"><ele>277.0</ele><time>2026-04-16T17:03:26Z</time></trkpt><trkpt lat="45.70565218484131" lon="8.805299450612555"><ele>277.0</ele><time>2026-04-16T17:03:28Z</time></trkpt><trkpt lat="45.705718425105296" lon="8.8051963844586"><ele>277.0</ele><time>2026-04-16T17:03:30Z</time></trkpt><trkpt lat="45.70577254061001" lon="8.805107507076364"><ele>277.0</ele><time>2026-04-16T17:03:32Z</time></trkpt><trkpt lat="45.70575638392184" lon="8.80497016992711"><ele>277.0</ele><time>2026-04-16T17:03:34Z</time></trkpt><trkpt lat="45.70570724415731" lon="8.804821269172022"><ele>277.0</ele><time>2026-04-16T17:03:36Z</time></trkpt><trkpt lat="45.70568421659115" lon="8.804736853326647"><ele>277.0</ele><time>2026-04-16T17:03:37Z</time></trkpt><trkpt lat="45.705667572663145" lon="8.804648117224124"><ele>277.0</ele><time>2026-04-16T17:03:38Z</time></trkpt><trkpt lat="45.705652377633484" lon="8.80455305629591"><ele>277.0</ele><time>2026-04-16T17:03:39Z</time></trkpt><trkpt lat="45.70563626417478" lon="8.80445717658454"><ele>277.0</ele><time>2026-04-16T17:03:40Z</time></trkpt><trkpt lat="45.705615733536895" lon="8.804361932297295"><ele>277.0</ele><time>2026-04-16T17:03:41Z</time></trkpt><trkpt lat="45.70559266919159" lon="8.804264469028622"><ele>277.0</ele><time>2026-04-16T17:03:42Z</time></trkpt><trkpt lat="45.70556802750804" lon="8.804161892638929"><ele>277.0</ele><time>2026-04-16T17:03:43Z</time></trkpt><trkpt lat="45.705540536716555" lon="8.804057178709723"><ele>277.0</ele><time>2026-04-16T17:03:44Z</time></trkpt><trkpt lat="45.70551697640688" lon="8.80396344222241"><ele>277.0</ele><time>2026-04-16T17:03:45Z</time></trkpt><trkpt lat="45.705475088754234" lon="8.803818015519127"><ele>277.0</ele><time>2026-04-16T17:03:47Z</time></trkpt><trkpt lat="45.705442830805616" lon="8.803730204475965"><ele>277.0</ele><time>2026-04-16T17:03:49Z</time></trkpt><trkpt lat="45.705468709249" lon="8.803607429002739"><ele>277.0</ele><time>2026-04-16T17:03:51Z</time></trkpt><trkpt lat="45.705521426415345" lon="8.803528634722005"><ele>277.0</ele><time>2026-04-16T17:03:52Z</time></trkpt><trkpt lat="45.70559043296063" lon="8.803459064255636"><ele>277.4</ele><time>2026-04-16T17:03:53Z</time></trkpt><trkpt lat="45.7056772414377" lon="8.803400153889907"><ele>277.79999999999995</ele><time>2026-04-16T17:03:54Z</time></trkpt><trkpt lat="45.70577420295418" lon="8.803348535236752"><ele>278.2</ele><time>2026-04-16T17:03:55Z</time></trkpt><trkpt lat="45.70588456452694" lon="8.803312276288432"><ele>278.59999999999997</ele><time>2026-04-16T17:03:56Z</time></trkpt><trkpt lat="45.70599573475935" lon="8.803270544768502"><ele>279.0</ele><time>2026-04-16T17:03:57Z</time></trkpt><trkpt lat="45.706111225210456" lon="8.803229487445007"><ele>279.0</ele><time>2026-04-16T17:03:58Z</time></trkpt><trkpt lat="45.70622603226944" lon="8.803190186868312"><ele>279.0</ele><time>2026-04-16T17:03:59Z</time></trkpt><trkpt lat="45.70634233893664" lon="8.803151390739709"><ele>279.0</ele><time>2026-04-16T17:04:00Z</time></trkpt><trkpt lat="45.7064575914524" lon="8.803113089213685"><ele>279.0</ele><time>2026-04-16T17:04:01Z</time></trkpt><trkpt lat="45.706574721775034" lon="8.803078840044549"><ele>279.0</ele><time>2026-04-16T17:04:02Z</time></trkpt><trkpt lat="45.70669790468273" lon="8.803057643144204"><ele>279.0</ele><time>2026-04-16T17:04:03Z</time></trkpt><trkpt lat="45.706827386937206" lon="8.803046559172582"><ele>279.0</ele><time>2026-04-16T17:04:04Z</time></trkpt><trkpt lat="45.70696349093977" lon="8.803053631202099"><ele>279.0</ele><time>2026-04-16T17:04:05Z</time></trkpt><trkpt lat="45.707096120129194" lon="8.803074954383"><ele>279.5</ele><time>2026-04-16T17:04:06Z</time></trkpt><trkpt lat="45.70722475595569" lon="8.803106788653528"><ele>280.0</ele><time>2026-04-16T17:04:07Z</time></trkpt><trkpt lat="45.70735197754147" lon="8.803141881620105"><ele>280.5</ele><time>2026-04-16T17:04:08Z</time></trkpt><trkpt lat="45.70747546572372" lon="8.803169023711073"><ele>281.0</ele><time>2026-04-16T17:04:09Z</time></trkpt><trkpt lat="45.70760494225901" lon="8.803188752325044"><ele>281.0</ele><time>2026-04-16T17:04:10Z</time></trkpt><trkpt lat="45.70773653589568" lon="8.803194651133008"><ele>281.0</ele><time>2026-04-16T17:04:11Z</time></trkpt><trkpt lat="45.70787028402767" lon="8.803192399906944"><ele>281.0</ele><time>2026-04-16T17:04:12Z</time></trkpt><trkpt lat="45.70800138905899" lon="8.803187188902793"><ele>281.0</ele><time>2026-04-16T17:04:13Z</time></trkpt><trkpt lat="45.70813161991566" lon="8.803186663180828"><ele>281.25</ele><time>2026-04-16T17:04:14Z</time></trkpt><trkpt lat="45.70827012248005" lon="8.80320990708334"><ele>281.5</ele><time>2026-04-16T17:04:15Z</time></trkpt><trkpt lat="45.708420716549504" lon="8.803258814533196"><ele>281.75</ele><time>2026-04-16T17:04:16Z</time></trkpt><trkpt lat="45.708563431825894" lon="8.803316450618832"><ele>282.0</ele><time>2026-04-16T17:04:17Z</time></trkpt><trkpt lat="45.708702466446574" lon="8.803373934018348"><ele>282.0</ele><time>2026-04-16T17:04:18Z</time></trkpt><trkpt lat="45.70884527858572" lon="8.803404788973447"><ele>282.0</ele><time>2026-04-16T17:04:19Z</time></trkpt><trkpt lat="45.708997628612664" lon="8.803401556108728"><ele>282.0</ele><time>2026-04-16T17:04:20Z</time></trkpt><trkpt lat="45.709139524567505" lon="8.803357960027155"><ele>282.0</ele><time>2026-04-16T17:04:21Z</time></trkpt><trkpt lat="45.70928952695934" lon="8.803278034970072"><ele>282.0</ele><time>2026-04-16T17:04:22Z</time></trkpt><trkpt lat="45.70943896396378" lon="8.803187473277431"><ele>282.0</ele><time>2026-04-16T17:04:23Z</time></trkpt><trkpt lat="45.70958530205666" lon="8.80311706966729"><ele>282.0</ele><time>2026-04-16T17:04:24Z</time></trkpt><trkpt lat="45.70973173331279" lon="8.80306766713991"><ele>282.0</ele><time>2026-04-16T17:04:25Z</time></trkpt><trkpt lat="45.709875270711635" lon="8.803037934755167"><ele>282.0</ele><time>2026-04-16T17:04:26Z</time></trkpt><trkpt lat="45.710013362281174" lon="8.803006462079066"><ele>282.0</ele><time>2026-04-16T17:04:27Z</time></trkpt><trkpt lat="45.710152539701866" lon="8.802972474575657"><ele>282.0</ele><time>2026-04-16T17:04:28Z</time></trkpt><trkpt lat="45.710290992379484" lon="8.802938842475383"><ele>282.0</ele><time>2026-04-16T17:04:29.001Z</time></trkpt><trkpt lat="45.710430316596025" lon="8.802909574008407"><ele>282.0</ele><time>2026-04-16T17:04:30.001Z</time></trkpt><trkpt lat="45.71057182119359" lon="8.802888240988812"><ele>282.0</ele><time>2026-04-16T17:04:31.001Z</time></trkpt><trkpt lat="45.710712994317205" lon="8.802870992936729"><ele>282.0</ele><time>2026-04-16T17:04:32.001Z</time></trkpt><trkpt lat="45.71085532673678" lon="8.802856244438164"><ele>282.0</ele><time>2026-04-16T17:04:33.001Z</time></trkpt><trkpt lat="45.71100192480025" lon="8.802841989297818"><ele>282.0</ele><time>2026-04-16T17:04:34.001Z</time></trkpt><trkpt lat="45.71114708826476" lon="8.802830631479656"><ele>282.0</ele><time>2026-04-16T17:04:35.001Z</time></trkpt><trkpt lat="45.71129044765722" lon="8.802825404629191"><ele>282.0</ele><time>2026-04-16T17:04:36.001Z</time></trkpt><trkpt lat="45.71143037102147" lon="8.80283111917503"><ele>282.5</ele><time>2026-04-16T17:04:37.001Z</time></trkpt><trkpt lat="45.71157000771253" lon="8.802874519816177"><ele>283.0</ele><time>2026-04-16T17:04:38.001Z</time></trkpt><trkpt lat="45.711704016546825" lon="8.802910408290872"><ele>283.5</ele><time>2026-04-16T17:04:39.001Z</time></trkpt><trkpt lat="45.71182471309855" lon="8.802955787107223"><ele>284.0</ele><time>2026-04-16T17:04:40.001Z</time></trkpt><trkpt lat="45.71193917934653" lon="8.802988974883963"><ele>284.33333333333337</ele><time>2026-04-16T17:04:41.001Z</time></trkpt><trkpt lat="45.712037582111854" lon="8.803043005568592"><ele>284.6666666666667</ele><time>2026-04-16T17:04:42.001Z</time></trkpt><trkpt lat="45.71212903426502" lon="8.803082804634082"><ele>285.0</ele><time>2026-04-16T17:04:43.001Z</time></trkpt><trkpt lat="45.71221441333382" lon="8.80311794714084"><ele>285.3333333333333</ele><time>2026-04-16T17:04:44.001Z</time></trkpt><trkpt lat="45.712293886295946" lon="8.80314014216966"><ele>285.66666666666663</ele><time>2026-04-16T17:04:45.001Z</time></trkpt><trkpt lat="45.712367790835756" lon="8.803152956242835"><ele>286.0</ele><time>2026-04-16T17:04:46.001Z</time></trkpt><trkpt lat="45.71243560107594" lon="8.803168136356422"><ele>286.0</ele><time>2026-04-16T17:04:47.001Z</time></trkpt><trkpt lat="45.71254246906028" lon="8.803239153685949"><ele>286.0</ele><time>2026-04-16T17:04:49.001Z</time></trkpt><trkpt lat="45.71260106080974" lon="8.80328198856617"><ele>286.0</ele><time>2026-04-16T17:04:50.001Z</time></trkpt><trkpt lat="45.712670988889506" lon="8.803297780143646"><ele>286.0</ele><time>2026-04-16T17:04:51.001Z</time></trkpt><trkpt lat="45.71274196568576" lon="8.803317908807122"><ele>286.0</ele><time>2026-04-16T17:04:52.001Z</time></trkpt><trkpt lat="45.712806605133515" lon="8.803351105599415"><ele>286.0</ele><time>2026-04-16T17:04:53.001Z</time></trkpt><trkpt lat="45.71286790406282" lon="8.803404942195275"><ele>285.8333333333333</ele><time>2026-04-16T17:04:54.001Z</time></trkpt><trkpt lat="45.712924266688965" lon="8.803464123670087"><ele>285.66666666666663</ele><time>2026-04-16T17:04:55.001Z</time></trkpt><trkpt lat="45.71298149806538" lon="8.80352617358081"><ele>285.5</ele><time>2026-04-16T17:04:56.001Z</time></trkpt><trkpt lat="45.713045072162856" lon="8.803588013225978"><ele>285.3333333333333</ele><time>2026-04-16T17:04:57.001Z</time></trkpt><trkpt lat="45.71311790366987" lon="8.803652647873607"><ele>285.1666666666667</ele><time>2026-04-16T17:04:58.001Z</time></trkpt><trkpt lat="45.71319848852012" lon="8.803715673450464"><ele>285.0</ele><time>2026-04-16T17:04:59.001Z</time></trkpt><trkpt lat="45.71328108048282" lon="8.803775458362656"><ele>285.0</ele><time>2026-04-16T17:05:00.001Z</time></trkpt><trkpt lat="45.71336525764576" lon="8.803834525553851"><ele>285.0</ele><time>2026-04-16T17:05:01.001Z</time></trkpt><trkpt lat="45.71345514843645" lon="8.803897527294794"><ele>285.0</ele><time>2026-04-16T17:05:02.001Z</time></trkpt><trkpt lat="45.71355021499753" lon="8.80395939822876"><ele>285.0</ele><time>2026-04-16T17:05:03.001Z</time></trkpt><trkpt lat="45.713644126510644" lon="8.804019776956498"><ele>285.0</ele><time>2026-04-16T17:05:04.001Z</time></trkpt><trkpt lat="45.71374197084277" lon="8.804077923264236"><ele>284.4</ele><time>2026-04-16T17:05:05.001Z</time></trkpt><trkpt lat="45.71384366688316" lon="8.804137305516255"><ele>283.8</ele><time>2026-04-16T17:05:06.001Z</time></trkpt><trkpt lat="45.713937981431016" lon="8.80419606521727"><ele>283.2</ele><time>2026-04-16T17:05:07.002Z</time></trkpt><trkpt lat="45.71403428854352" lon="8.80425645630995"><ele>282.6</ele><time>2026-04-16T17:05:08.002Z</time></trkpt><trkpt lat="45.71412998841903" lon="8.804316932700589"><ele>282.0</ele><time>2026-04-16T17:05:09.002Z</time></trkpt><trkpt lat="45.71422766815619" lon="8.804379415102508"><ele>282.0</ele><time>2026-04-16T17:05:10.002Z</time></trkpt><trkpt lat="45.71432600979117" lon="8.804437829630881"><ele>282.0</ele><time>2026-04-16T17:05:11.002Z</time></trkpt><trkpt lat="45.71442892177747" lon="8.80449596685631"><ele>282.0</ele><time>2026-04-16T17:05:12.002Z</time></trkpt><trkpt lat="45.71453825935535" lon="8.804546620316907"><ele>282.0</ele><time>2026-04-16T17:05:13.002Z</time></trkpt><trkpt lat="45.71465465001071" lon="8.804592138890753"><ele>283.75</ele><time>2026-04-16T17:05:14.002Z</time></trkpt><trkpt lat="45.714777046595074" lon="8.804634174861752"><ele>285.5</ele><time>2026-04-16T17:05:15.002Z</time></trkpt><trkpt lat="45.714901764057345" lon="8.804676524412033"><ele>287.25</ele><time>2026-04-16T17:05:16.002Z</time></trkpt><trkpt lat="45.7150246768832" lon="8.804714331027833"><ele>289.0</ele><time>2026-04-16T17:05:17.002Z</time></trkpt><trkpt lat="45.71514757595315" lon="8.804748991912453"><ele>291.0</ele><time>2026-04-16T17:05:18.002Z</time></trkpt><trkpt lat="45.715270794527235" lon="8.80478092546221"><ele>293.0</ele><time>2026-04-16T17:05:19.002Z</time></trkpt><trkpt lat="45.71539406148118" lon="8.804810837094024"><ele>295.0</ele><time>2026-04-16T17:05:20.002Z</time></trkpt><trkpt lat="45.71551832854304" lon="8.804843693764909"><ele>297.0</ele><time>2026-04-16T17:05:21.002Z</time></trkpt><trkpt lat="45.71564461393844" lon="8.804877392336985"><ele>297.0</ele><time>2026-04-16T17:05:22.002Z</time></trkpt><trkpt lat="45.71577165344018" lon="8.80490964570164"><ele>297.0</ele><time>2026-04-16T17:05:23.002Z</time></trkpt><trkpt lat="45.71589947773017" lon="8.80494023225967"><ele>297.0</ele><time>2026-04-16T17:05:24.002Z</time></trkpt><trkpt lat="45.71604127380127" lon="8.804968766109125"><ele>297.0</ele><time>2026-04-16T17:05:25.002Z</time></trkpt><trkpt lat="45.716173356203555" lon="8.804996143526417"><ele>297.5</ele><time>2026-04-16T17:05:26.002Z</time></trkpt><trkpt lat="45.71630473821227" lon="8.805025968334727"><ele>298.0</ele><time>2026-04-16T17:05:27.001Z</time></trkpt><trkpt lat="45.716435932468066" lon="8.805053173422634"><ele>298.5</ele><time>2026-04-16T17:05:28.001Z</time></trkpt><trkpt lat="45.71657282152704" lon="8.805079440633529"><ele>299.0</ele><time>2026-04-16T17:05:29.001Z</time></trkpt><trkpt lat="45.716720555136895" lon="8.805102256722527"><ele>299.0</ele><time>2026-04-16T17:05:30.001Z</time></trkpt><trkpt lat="45.71688453200822" lon="8.80511711883187"><ele>299.0</ele><time>2026-04-16T17:05:31.001Z</time></trkpt><trkpt lat="45.71705006738458" lon="8.805121797775044"><ele>299.0</ele><time>2026-04-16T17:05:32.001Z</time></trkpt><trkpt lat="45.71721149883897" lon="8.805133863024604"><ele>299.33333333333337</ele><time>2026-04-16T17:05:33.001Z</time></trkpt><trkpt lat="45.71736909071341" lon="8.805152914829133"><ele>299.6666666666667</ele><time>2026-04-16T17:05:34.001Z</time></trkpt><trkpt lat="45.71752046894848" lon="8.805179134149917"><ele>300.0</ele><time>2026-04-16T17:05:35.001Z</time></trkpt><trkpt lat="45.71766879375731" lon="8.80521260906696"><ele>299.0</ele><time>2026-04-16T17:05:36.001Z</time></trkpt><trkpt lat="45.71781608707343" lon="8.805255346723738"><ele>298.0</ele><time>2026-04-16T17:05:37.001Z</time></trkpt><trkpt lat="45.71796085688246" lon="8.805308697195699"><ele>297.0</ele><time>2026-04-16T17:05:38.001Z</time></trkpt><trkpt lat="45.71810195594234" lon="8.80537497391877"><ele>296.0</ele><time>2026-04-16T17:05:39.001Z</time></trkpt><trkpt lat="45.718243603882264" lon="8.805457440887807"><ele>296.0</ele><time>2026-04-16T17:05:40.001Z</time></trkpt><trkpt lat="45.71838736307571" lon="8.805554857556976"><ele>296.0</ele><time>2026-04-16T17:05:41.001Z</time></trkpt><trkpt lat="45.71852282667894" lon="8.805649968878496"><ele>296.0</ele><time>2026-04-16T17:05:42.001Z</time></trkpt><trkpt lat="45.7186676378144" lon="8.805740949085386"><ele>294.5</ele><time>2026-04-16T17:05:43.001Z</time></trkpt><trkpt lat="45.718815658898016" lon="8.805815245419366"><ele>293.0</ele><time>2026-04-16T17:05:44.001Z</time></trkpt><trkpt lat="45.71895541791481" lon="8.805885558354587"><ele>291.5</ele><time>2026-04-16T17:05:45.001Z</time></trkpt><trkpt lat="45.719087527328774" lon="8.805951277503217"><ele>290.0</ele><time>2026-04-16T17:05:46.001Z</time></trkpt><trkpt lat="45.719214022581916" lon="8.806011998956949"><ele>290.0</ele><time>2026-04-16T17:05:47.001Z</time></trkpt><trkpt lat="45.71933549345273" lon="8.806069627681518"><ele>290.0</ele><time>2026-04-16T17:05:48.001Z</time></trkpt><trkpt lat="45.719450112143775" lon="8.806125332826662"><ele>290.0</ele><time>2026-04-16T17:05:49.001Z</time></trkpt><trkpt lat="45.71955908472455" lon="8.806181635537504"><ele>290.0</ele><time>2026-04-16T17:05:50.001Z</time></trkpt><trkpt lat="45.71966388160628" lon="8.806237118082437"><ele>291.2</ele><time>2026-04-16T17:05:51.001Z</time></trkpt><trkpt lat="45.71976506479451" lon="8.806289211503875"><ele>292.4</ele><time>2026-04-16T17:05:52.001Z</time></trkpt><trkpt lat="45.71986270967227" lon="8.806339635566149"><ele>293.6</ele><time>2026-04-16T17:05:53.001Z</time></trkpt><trkpt lat="45.71995739930775" lon="8.80638526518593"><ele>294.8</ele><time>2026-04-16T17:05:54.001Z</time></trkpt><trkpt lat="45.72003060379096" lon="8.806421987515046"><ele>296.0</ele><time>2026-04-16T17:05:55.001Z</time></trkpt><trkpt lat="45.720105490641664" lon="8.80647323906579"><ele>296.0</ele><time>2026-04-16T17:05:57.001Z</time></trkpt><trkpt lat="45.720174404283966" lon="8.806565013458913"><ele>296.0</ele><time>2026-04-16T17:06:00.001Z</time></trkpt><trkpt lat="45.7202225843374" lon="8.806734021165852"><ele>296.0</ele><time>2026-04-16T17:06:02.001Z</time></trkpt><trkpt lat="45.720244934310344" lon="8.806895613922894"><ele>296.0</ele><time>2026-04-16T17:06:04.001Z</time></trkpt><trkpt lat="45.72023248133765" lon="8.806986761497738"><ele>296.0</ele><time>2026-04-16T17:06:05.001Z</time></trkpt><trkpt lat="45.72020809730595" lon="8.807096014045088"><ele>294.83333333333337</ele><time>2026-04-16T17:06:06.001Z</time></trkpt><trkpt lat="45.720177720442365" lon="8.807205729357003"><ele>293.6666666666667</ele><time>2026-04-16T17:06:07.001Z</time></trkpt><trkpt lat="45.72015050509496" lon="8.80730833982073"><ele>292.5</ele><time>2026-04-16T17:06:08.001Z</time></trkpt><trkpt lat="45.72012459943609" lon="8.807402324012829"><ele>291.3333333333333</ele><time>2026-04-16T17:06:09.001Z</time></trkpt><trkpt lat="45.72009590593685" lon="8.807506312159582"><ele>290.16666666666663</ele><time>2026-04-16T17:06:10.001Z</time></trkpt><trkpt lat="45.720062837210925" lon="8.807626513000214"><ele>289.0</ele><time>2026-04-16T17:06:11.001Z</time></trkpt><trkpt lat="45.72002838015434" lon="8.807752502334424"><ele>289.0</ele><time>2026-04-16T17:06:12.001Z</time></trkpt><trkpt lat="45.71999154581249" lon="8.807876789547299"><ele>289.0</ele><time>2026-04-16T17:06:13.001Z</time></trkpt><trkpt lat="45.71994779864049" lon="8.807988525452817"><ele>289.0</ele><time>2026-04-16T17:06:14.001Z</time></trkpt><trkpt lat="45.719896748460684" lon="8.80809709854758"><ele>289.0</ele><time>2026-04-16T17:06:15.001Z</time></trkpt><trkpt lat="45.719860386516295" lon="8.808228172661746"><ele>289.0</ele><time>2026-04-16T17:06:16.001Z</time></trkpt><trkpt lat="45.71985036213744" lon="8.808402748451561"><ele>289.0</ele><time>2026-04-16T17:06:17.001Z</time></trkpt><trkpt lat="45.71984666110725" lon="8.808586237978037"><ele>289.0</ele><time>2026-04-16T17:06:18.001Z</time></trkpt><trkpt lat="45.71983498506347" lon="8.808747443184446"><ele>289.0</ele><time>2026-04-16T17:06:19.001Z</time></trkpt><trkpt lat="45.719821116437934" lon="8.80889739745181"><ele>289.0</ele><time>2026-04-16T17:06:20.001Z</time></trkpt><trkpt lat="45.71981306150732" lon="8.80904115782497"><ele>289.0</ele><time>2026-04-16T17:06:21.001Z</time></trkpt><trkpt lat="45.71980935384377" lon="8.809173936823198"><ele>289.0</ele><time>2026-04-16T17:06:22.001Z</time></trkpt><trkpt lat="45.71980479156088" lon="8.80930183562376"><ele>289.0</ele><time>2026-04-16T17:06:23.001Z</time></trkpt><trkpt lat="45.719796984440585" lon="8.809426183933349"><ele>289.0</ele><time>2026-04-16T17:06:24.001Z</time></trkpt><trkpt lat="45.719791218913485" lon="8.809543047461249"><ele>289.0</ele><time>2026-04-16T17:06:25.001Z</time></trkpt><trkpt lat="45.71978547153241" lon="8.80966418480731"><ele>289.0</ele><time>2026-04-16T17:06:26.001Z</time></trkpt><trkpt lat="45.719779375309436" lon="8.809783291733883"><ele>289.0</ele><time>2026-04-16T17:06:27.001Z</time></trkpt><trkpt lat="45.719775889239024" lon="8.809905738316026"><ele>288.66666666666663</ele><time>2026-04-16T17:06:28.001Z</time></trkpt><trkpt lat="45.7197694900684" lon="8.810014251155614"><ele>288.3333333333333</ele><time>2026-04-16T17:06:29.001Z</time></trkpt><trkpt lat="45.71973799150009" lon="8.810171079420789"><ele>288.0</ele><time>2026-04-16T17:06:31.001Z</time></trkpt><trkpt lat="45.71969650974486" lon="8.810254977978095"><ele>287.6666666666667</ele><time>2026-04-16T17:06:32.001Z</time></trkpt><trkpt lat="45.71964778625094" lon="8.810352761767259"><ele>287.33333333333337</ele><time>2026-04-16T17:06:33.001Z</time></trkpt><trkpt lat="45.71961793561196" lon="8.810459832236418"><ele>287.0</ele><time>2026-04-16T17:06:34.001Z</time></trkpt><trkpt lat="45.71961301979049" lon="8.810577528081605"><ele>287.0</ele><time>2026-04-16T17:06:35.001Z</time></trkpt><trkpt lat="45.71961060943646" lon="8.810725534033104"><ele>287.0</ele><time>2026-04-16T17:06:36.001Z</time></trkpt><trkpt lat="45.71957533354546" lon="8.810896439259567"><ele>287.0</ele><time>2026-04-16T17:06:37.001Z</time></trkpt><trkpt lat="45.71950428954357" lon="8.811057927152483"><ele>287.0</ele><time>2026-04-16T17:06:38.001Z</time></trkpt><trkpt lat="45.71940326612185" lon="8.81120665106755"><ele>290.0</ele><time>2026-04-16T17:06:39.001Z</time></trkpt><trkpt lat="45.71928214019926" lon="8.811320289458527"><ele>293.0</ele><time>2026-04-16T17:06:40.001Z</time></trkpt><trkpt lat="45.719133987447535" lon="8.811405445174863"><ele>296.0</ele><time>2026-04-16T17:06:41.001Z</time></trkpt><trkpt lat="45.718982173163184" lon="8.811457795702712"><ele>296.0</ele><time>2026-04-16T17:06:42.001Z</time></trkpt><trkpt lat="45.71884249984071" lon="8.811468823616163"><ele>296.0</ele><time>2026-04-16T17:06:43.001Z</time></trkpt><trkpt lat="45.7187143423184" lon="8.811452485542295"><ele>296.0</ele><time>2026-04-16T17:06:44.001Z</time></trkpt><trkpt lat="45.7185963173921" lon="8.811412255048026"><ele>296.0</ele><time>2026-04-16T17:06:45.001Z</time></trkpt><trkpt lat="45.7184909075882" lon="8.81137276321998"><ele>296.0</ele><time>2026-04-16T17:06:46.001Z</time></trkpt><trkpt lat="45.718400735026606" lon="8.81134201834636"><ele>296.0</ele><time>2026-04-16T17:06:47.001Z</time></trkpt><trkpt lat="45.71831211953733" lon="8.81131105079322"><ele>296.0</ele><time>2026-04-16T17:06:48.001Z</time></trkpt><trkpt lat="45.718214932940306" lon="8.811274782663737"><ele>296.0</ele><time>2026-04-16T17:06:49.001Z</time></trkpt><trkpt lat="45.71811131395312" lon="8.811232257478993"><ele>296.0</ele><time>2026-04-16T17:06:50.001Z</time></trkpt><trkpt lat="45.71800347867053" lon="8.81118797935811"><ele>296.0</ele><time>2026-04-16T17:06:51.001Z</time></trkpt><trkpt lat="45.71789617465653" lon="8.811145677154162"><ele>296.0</ele><time>2026-04-16T17:06:52.001Z</time></trkpt><trkpt lat="45.71778259871313" lon="8.811103216159127"><ele>296.0</ele><time>2026-04-16T17:06:53.001Z</time></trkpt><trkpt lat="45.717668919841024" lon="8.811059518330614"><ele>296.0</ele><time>2026-04-16T17:06:54.001Z</time></trkpt><trkpt lat="45.71755022219389" lon="8.811011291769727"><ele>295.0</ele><time>2026-04-16T17:06:55.001Z</time></trkpt><trkpt lat="45.717432839378155" lon="8.810963766932979"><ele>294.0</ele><time>2026-04-16T17:06:56.001Z</time></trkpt><trkpt lat="45.7173167918548" lon="8.810916165199737"><ele>293.0</ele><time>2026-04-16T17:06:57.001Z</time></trkpt><trkpt lat="45.717177761695055" lon="8.810867146458541"><ele>292.0</ele><time>2026-04-16T17:06:58.001Z</time></trkpt><trkpt lat="45.71700003739659" lon="8.810805554440504"><ele>291.3333333333333</ele><time>2026-04-16T17:06:59.001Z</time></trkpt><trkpt lat="45.71680344404678" lon="8.81072678267827"><ele>290.6666666666667</ele><time>2026-04-16T17:07:00.001Z</time></trkpt><trkpt lat="45.71660741613703" lon="8.810636089502653"><ele>290.0</ele><time>2026-04-16T17:07:01.001Z</time></trkpt><trkpt lat="45.716425403997206" lon="8.810565289405815"><ele>290.0</ele><time>2026-04-16T17:07:02.001Z</time></trkpt><trkpt lat="45.71625733791275" lon="8.810501229627379"><ele>290.0</ele><time>2026-04-16T17:07:03.001Z</time></trkpt><trkpt lat="45.716100042873414" lon="8.810432910474265"><ele>290.0</ele><time>2026-04-16T17:07:04.001Z</time></trkpt><trkpt lat="45.71594905270636" lon="8.81037211502449"><ele>290.25</ele><time>2026-04-16T17:07:05.001Z</time></trkpt><trkpt lat="45.71581285959752" lon="8.810331239698279"><ele>290.5</ele><time>2026-04-16T17:07:06.001Z</time></trkpt><trkpt lat="45.715691412395536" lon="8.81032168840685"><ele>290.75</ele><time>2026-04-16T17:07:07Z</time></trkpt><trkpt lat="45.71557707363807" lon="8.810349361363578"><ele>291.0</ele><time>2026-04-16T17:07:08Z</time></trkpt><trkpt lat="45.71547368760472" lon="8.810411917750153"><ele>291.0</ele><time>2026-04-16T17:07:09Z</time></trkpt><trkpt lat="45.7153925182676" lon="8.810500308956449"><ele>291.0</ele><time>2026-04-16T17:07:10Z</time></trkpt><trkpt lat="45.71531983550157" lon="8.810535675692774"><ele>291.0</ele><time>2026-04-16T17:07:11Z</time></trkpt><trkpt lat="45.71532559432965" lon="8.810730459042242"><ele>291.0</ele><time>2026-04-16T17:07:12Z</time></trkpt><trkpt lat="45.71534251645844" lon="8.81087203304876"><ele>291.0</ele><time>2026-04-16T17:07:13.002Z</time></trkpt><trkpt lat="45.71539091339986" lon="8.811041270264084"><ele>291.5</ele><time>2026-04-16T17:07:14.002Z</time></trkpt><trkpt lat="45.71545168099088" lon="8.811232972154038"><ele>292.0</ele><time>2026-04-16T17:07:15.002Z</time></trkpt><trkpt lat="45.71550557309309" lon="8.811429129322976"><ele>292.5</ele><time>2026-04-16T17:07:16.002Z</time></trkpt><trkpt lat="45.71554645297637" lon="8.811611066717377"><ele>293.0</ele><time>2026-04-16T17:07:17.002Z</time></trkpt><trkpt lat="45.71557646236221" lon="8.811767938766954"><ele>294.6</ele><time>2026-04-16T17:07:18.002Z</time></trkpt><trkpt lat="45.71560583528603" lon="8.811910894433305"><ele>296.20000000000005</ele><time>2026-04-16T17:07:19.002Z</time></trkpt><trkpt lat="45.715631825471085" lon="8.812041035480101"><ele>297.8</ele><time>2026-04-16T17:07:20.002Z</time></trkpt><trkpt lat="45.71565241417602" lon="8.812151248153368"><ele>299.40000000000003</ele><time>2026-04-16T17:07:21.002Z</time></trkpt><trkpt lat="45.715666183408736" lon="8.812313441556693"><ele>301.0</ele><time>2026-04-16T17:07:23.002Z</time></trkpt><trkpt lat="45.71577556827398" lon="8.812450336342817"><ele>301.0</ele><time>2026-04-16T17:07:25.002Z</time></trkpt><trkpt lat="45.71589619970194" lon="8.812496062523195"><ele>301.0</ele><time>2026-04-16T17:07:26.002Z</time></trkpt><trkpt lat="45.71603428381468" lon="8.812550688868985"><ele>301.0</ele><time>2026-04-16T17:07:27.002Z</time></trkpt><trkpt lat="45.716172888010036" lon="8.81264649817492"><ele>301.0</ele><time>2026-04-16T17:07:28.002Z</time></trkpt><trkpt lat="45.716337060719376" lon="8.812742826022172"><ele>306.3333333333333</ele><time>2026-04-16T17:07:29.002Z</time></trkpt><trkpt lat="45.71650878807685" lon="8.812843917055469"><ele>311.6666666666667</ele><time>2026-04-16T17:07:30.001Z</time></trkpt><trkpt lat="45.71670462126303" lon="8.812937803174593"><ele>317.0</ele><time>2026-04-16T17:07:31.001Z</time></trkpt><trkpt lat="45.716899409989594" lon="8.813055923656531"><ele>316.0</ele><time>2026-04-16T17:07:32.001Z</time></trkpt><trkpt lat="45.71709757288878" lon="8.813159243588633"><ele>315.0</ele><time>2026-04-16T17:07:33.001Z</time></trkpt><trkpt lat="45.7172995212155" lon="8.813268579903045"><ele>314.0</ele><time>2026-04-16T17:07:34.001Z</time></trkpt><trkpt lat="45.71749484545211" lon="8.813390103025773"><ele>317.33333333333337</ele><time>2026-04-16T17:07:35.001Z</time></trkpt><trkpt lat="45.71767939770801" lon="8.813564849584159"><ele>320.6666666666667</ele><time>2026-04-16T17:07:36.001Z</time></trkpt><trkpt lat="45.717856160991964" lon="8.813705568969173"><ele>324.0</ele><time>2026-04-16T17:07:37.001Z</time></trkpt><trkpt lat="45.718037960818776" lon="8.813819807055223"><ele>324.3333333333333</ele><time>2026-04-16T17:07:38.001Z</time></trkpt><trkpt lat="45.718198982317915" lon="8.813924154938503"><ele>324.66666666666663</ele><time>2026-04-16T17:07:39.001Z</time></trkpt><trkpt lat="45.71834952408965" lon="8.814012271246892"><ele>325.0</ele><time>2026-04-16T17:07:40.001Z</time></trkpt><trkpt lat="45.718484900571646" lon="8.814081328191048"><ele>325.6</ele><time>2026-04-16T17:07:41.001Z</time></trkpt><trkpt lat="45.71858197951356" lon="8.81415024004643"><ele>326.2</ele><time>2026-04-16T17:07:42.001Z</time></trkpt><trkpt lat="45.71864933455993" lon="8.814180319748663"><ele>326.79999999999995</ele><time>2026-04-16T17:07:43.001Z</time></trkpt><trkpt lat="45.718716143745304" lon="8.814206744005357"><ele>327.4</ele><time>2026-04-16T17:07:45.001Z</time></trkpt><trkpt lat="45.71868217847394" lon="8.814324743023688"><ele>328.0</ele><time>2026-04-16T17:07:47.001Z</time></trkpt><trkpt lat="45.71863550997642" lon="8.814495796573574"><ele>328.1428571428571</ele><time>2026-04-16T17:07:49.001Z</time></trkpt><trkpt lat="45.718611196130425" lon="8.81458869447452"><ele>328.2857142857143</ele><time>2026-04-16T17:07:50.001Z</time></trkpt><trkpt lat="45.71858745223515" lon="8.81468276886727"><ele>328.42857142857144</ele><time>2026-04-16T17:07:51.001Z</time></trkpt><trkpt lat="45.71856459712325" lon="8.81478002508702"><ele>328.57142857142856</ele><time>2026-04-16T17:07:52.001Z</time></trkpt><trkpt lat="45.718551640878694" lon="8.814880776514281"><ele>328.7142857142857</ele><time>2026-04-16T17:07:53.001Z</time></trkpt><trkpt lat="45.71854375664258" lon="8.814980443071565"><ele>328.85714285714283</ele><time>2026-04-16T17:07:54.001Z</time></trkpt><trkpt lat="45.71853986327974" lon="8.815073465378223"><ele>329.0</ele><time>2026-04-16T17:07:55.001Z</time></trkpt><trkpt lat="45.71852971581039" lon="8.815238805520899"><ele>329.5</ele><time>2026-04-16T17:07:57.001Z</time></trkpt><trkpt lat="45.718514490222404" lon="8.815345440316207"><ele>330.0</ele><time>2026-04-16T17:07:58.001Z</time></trkpt><trkpt lat="45.71849511809095" lon="8.815466130033908"><ele>330.5</ele><time>2026-04-16T17:07:59.001Z</time></trkpt><trkpt lat="45.71847258783922" lon="8.81558197868729"><ele>331.0</ele><time>2026-04-16T17:08:00.001Z</time></trkpt><trkpt lat="45.71845594026656" lon="8.815692086847024"><ele>331.5</ele><time>2026-04-16T17:08:01.001Z</time></trkpt><trkpt lat="45.7184432521067" lon="8.815796527159772"><ele>332.0</ele><time>2026-04-16T17:08:02.001Z</time></trkpt><trkpt lat="45.71843375113746" lon="8.815896237616611"><ele>331.6</ele><time>2026-04-16T17:08:03.001Z</time></trkpt><trkpt lat="45.71842248489346" lon="8.815991338014854"><ele>331.20000000000005</ele><time>2026-04-16T17:08:04.001Z</time></trkpt><trkpt lat="45.718414872759105" lon="8.816169083425423"><ele>330.8</ele><time>2026-04-16T17:08:06.001Z</time></trkpt><trkpt lat="45.718419927760216" lon="8.816285681894227"><ele>330.4</ele><time>2026-04-16T17:08:07.001Z</time></trkpt><trkpt lat="45.71845860751409" lon="8.816420702439512"><ele>330.0</ele><time>2026-04-16T17:08:08.001Z</time></trkpt><trkpt lat="45.71842297238264" lon="8.816621217239717"><ele>330.0</ele><time>2026-04-16T17:08:09.001Z</time></trkpt><trkpt lat="45.718405368729044" lon="8.816838364816773"><ele>330.0</ele><time>2026-04-16T17:08:10.001Z</time></trkpt><trkpt lat="45.71837429944123" lon="8.817098962610284"><ele>330.0</ele><time>2026-04-16T17:08:11.001Z</time></trkpt><trkpt lat="45.71833457675627" lon="8.817387968283859"><ele>329.0</ele><time>2026-04-16T17:08:12.001Z</time></trkpt><trkpt lat="45.71828932200674" lon="8.81769220160949"><ele>328.0</ele><time>2026-04-16T17:08:13Z</time></trkpt><trkpt lat="45.71823975590711" lon="8.817988139692511"><ele>327.0</ele><time>2026-04-16T17:08:14Z</time></trkpt><trkpt lat="45.71819990291986" lon="8.818255718110057"><ele>326.5</ele><time>2026-04-16T17:08:15Z</time></trkpt><trkpt lat="45.718169605423164" lon="8.818495775645854"><ele>326.0</ele><time>2026-04-16T17:08:15.999Z</time></trkpt><trkpt lat="45.71815191826703" lon="8.818691034951124"><ele>325.5</ele><time>2026-04-16T17:08:16.999Z</time></trkpt><trkpt lat="45.71814250175478" lon="8.818849915231603"><ele>325.0</ele><time>2026-04-16T17:08:17.999Z</time></trkpt><trkpt lat="45.718128817134335" lon="8.818974666006651"><ele>325.0</ele><time>2026-04-16T17:08:18.999Z</time></trkpt><trkpt lat="45.71810079650719" lon="8.819076819489535"><ele>325.0</ele><time>2026-04-16T17:08:19.999Z</time></trkpt><trkpt lat="45.718050551807465" lon="8.819168666139376"><ele>325.0</ele><time>2026-04-16T17:08:20.999Z</time></trkpt><trkpt lat="45.71797668759829" lon="8.819254712173917"><ele>325.0</ele><time>2026-04-16T17:08:21.999Z</time></trkpt><trkpt lat="45.7179311960584" lon="8.819354229648908"><ele>325.0</ele><time>2026-04-16T17:08:22.999Z</time></trkpt><trkpt lat="45.71793735401041" lon="8.819464684549086"><ele>325.0</ele><time>2026-04-16T17:08:23.999Z</time></trkpt><trkpt lat="45.717983417192414" lon="8.819569850036796"><ele>324.2</ele><time>2026-04-16T17:08:24.999Z</time></trkpt><trkpt lat="45.71805732372265" lon="8.819629130290041"><ele>323.4</ele><time>2026-04-16T17:08:25.999Z</time></trkpt><trkpt lat="45.71815463161939" lon="8.819634566259085"><ele>322.6</ele><time>2026-04-16T17:08:26.999Z</time></trkpt><trkpt lat="45.7182562133697" lon="8.81958861323212"><ele>321.8</ele><time>2026-04-16T17:08:27.999Z</time></trkpt><trkpt lat="45.71837399839355" lon="8.819514352024216"><ele>321.0</ele><time>2026-04-16T17:08:28.999Z</time></trkpt><trkpt lat="45.71850214163719" lon="8.819471483619914"><ele>320.6666666666667</ele><time>2026-04-16T17:08:29.999Z</time></trkpt><trkpt lat="45.71865543685206" lon="8.819465712540934"><ele>320.33333333333337</ele><time>2026-04-16T17:08:30.999Z</time></trkpt><trkpt lat="45.71882043078769" lon="8.819474143292474"><ele>320.0</ele><time>2026-04-16T17:08:31.999Z</time></trkpt><trkpt lat="45.718964265917364" lon="8.819482954058438"><ele>320.0</ele><time>2026-04-16T17:08:32.999Z</time></trkpt><trkpt lat="45.71909664775064" lon="8.81947991981015"><ele>320.0</ele><time>2026-04-16T17:08:33.999Z</time></trkpt><trkpt lat="45.71922725293592" lon="8.819477139525144"><ele>320.0</ele><time>2026-04-16T17:08:34.999Z</time></trkpt><trkpt lat="45.719342465191595" lon="8.819473910295926"><ele>320.0</ele><time>2026-04-16T17:08:35.999Z</time></trkpt><trkpt lat="45.71943092483988" lon="8.819475814772874"><ele>320.1666666666667</ele><time>2026-04-16T17:08:36.999Z</time></trkpt><trkpt lat="45.71949492828932" lon="8.819477114258198"><ele>320.33333333333337</ele><time>2026-04-16T17:08:37.999Z</time></trkpt><trkpt lat="45.7196166262775" lon="8.819477335324915"><ele>320.5</ele><time>2026-04-16T17:08:39.999Z</time></trkpt><trkpt lat="45.71969039842469" lon="8.81947473436509"><ele>320.6666666666667</ele><time>2026-04-16T17:08:40.999Z</time></trkpt><trkpt lat="45.71976408724469" lon="8.819463504112287"><ele>320.8333333333333</ele><time>2026-04-16T17:08:41.999Z</time></trkpt><trkpt lat="45.71984527690307" lon="8.81948060781344"><ele>321.0</ele><time>2026-04-16T17:08:42.999Z</time></trkpt><trkpt lat="45.71994091318169" lon="8.819478286544507"><ele>321.0</ele><time>2026-04-16T17:08:43.999Z</time></trkpt><trkpt lat="45.72006117608726" lon="8.8194744467621"><ele>321.0</ele><time>2026-04-16T17:08:44.999Z</time></trkpt><trkpt lat="45.72019981602888" lon="8.819445190493404"><ele>321.0</ele><time>2026-04-16T17:08:45.999Z</time></trkpt><trkpt lat="45.72034505680647" lon="8.81944037509086"><ele>321.0</ele><time>2026-04-16T17:08:46.999Z</time></trkpt><trkpt lat="45.720500604310615" lon="8.819437121777524"><ele>323.0</ele><time>2026-04-16T17:08:47.999Z</time></trkpt><trkpt lat="45.72066903420331" lon="8.819435334230711"><ele>325.0</ele><time>2026-04-16T17:08:48.999Z</time></trkpt><trkpt lat="45.72084344542607" lon="8.81942846529129"><ele>327.0</ele><time>2026-04-16T17:08:49.999Z</time></trkpt><trkpt lat="45.72102947928911" lon="8.819419440455906"><ele>327.3333333333333</ele><time>2026-04-16T17:08:50.999Z</time></trkpt><trkpt lat="45.721223187253635" lon="8.819411906668334"><ele>327.66666666666663</ele><time>2026-04-16T17:08:51.999Z</time></trkpt><trkpt lat="45.72141554914972" lon="8.819408845434229"><ele>328.0</ele><time>2026-04-16T17:08:52.999Z</time></trkpt><trkpt lat="45.72161112075728" lon="8.819407887520658"><ele>328.0</ele><time>2026-04-16T17:08:53.999Z</time></trkpt><trkpt lat="45.72180838411589" lon="8.819408832290714"><ele>328.0</ele><time>2026-04-16T17:08:54.999Z</time></trkpt><trkpt lat="45.72200515174584" lon="8.819412787473256"><ele>328.0</ele><time>2026-04-16T17:08:55.999Z</time></trkpt><trkpt lat="45.72220345237197" lon="8.819421180996992"><ele>328.66666666666663</ele><time>2026-04-16T17:08:56.999Z</time></trkpt><trkpt lat="45.722395218156905" lon="8.819439358793755"><ele>329.3333333333333</ele><time>2026-04-16T17:08:57.999Z</time></trkpt><trkpt lat="45.72258269757796" lon="8.819475369694317"><ele>330.0</ele><time>2026-04-16T17:08:58.999Z</time></trkpt><trkpt lat="45.72276008430296" lon="8.819520922223129"><ele>330.3333333333333</ele><time>2026-04-16T17:08:59.999Z</time></trkpt><trkpt lat="45.72293100533494" lon="8.819569508462306"><ele>330.66666666666663</ele><time>2026-04-16T17:09:00.999Z</time></trkpt><trkpt lat="45.72309630651435" lon="8.819620363978407"><ele>331.0</ele><time>2026-04-16T17:09:01.999Z</time></trkpt><trkpt lat="45.723250429694176" lon="8.819664201221297"><ele>331.0</ele><time>2026-04-16T17:09:02.999Z</time></trkpt><trkpt lat="45.72340355919824" lon="8.819709918947048"><ele>331.0</ele><time>2026-04-16T17:09:03.999Z</time></trkpt><trkpt lat="45.723548001807735" lon="8.819754182153506"><ele>331.0</ele><time>2026-04-16T17:09:04.999Z</time></trkpt><trkpt lat="45.723681506548445" lon="8.819786932111821"><ele>331.0</ele><time>2026-04-16T17:09:05.999Z</time></trkpt><trkpt lat="45.72382424849837" lon="8.819781889544462"><ele>330.75</ele><time>2026-04-16T17:09:06.999Z</time></trkpt><trkpt lat="45.72396242255799" lon="8.819752995155486"><ele>330.5</ele><time>2026-04-16T17:09:07.999Z</time></trkpt><trkpt lat="45.724095852446794" lon="8.81968101228437"><ele>330.25</ele><time>2026-04-16T17:09:08.999Z</time></trkpt><trkpt lat="45.724216278531735" lon="8.81958099877965"><ele>330.0</ele><time>2026-04-16T17:09:09.999Z</time></trkpt><trkpt lat="45.724320818811215" lon="8.819449938028457"><ele>330.5</ele><time>2026-04-16T17:09:10.999Z</time></trkpt><trkpt lat="45.724405546995996" lon="8.819296881527823"><ele>331.0</ele><time>2026-04-16T17:09:11.999Z</time></trkpt><trkpt lat="45.72446761613611" lon="8.819129336192338"><ele>331.5</ele><time>2026-04-16T17:09:12.999Z</time></trkpt><trkpt lat="45.72452237209154" lon="8.818950028389905"><ele>332.0</ele><time>2026-04-16T17:09:13.999Z</time></trkpt><trkpt lat="45.72457340350336" lon="8.818788422502886"><ele>332.0</ele><time>2026-04-16T17:09:14.999Z</time></trkpt><trkpt lat="45.72462242566898" lon="8.818633668555574"><ele>332.0</ele><time>2026-04-16T17:09:15.999Z</time></trkpt><trkpt lat="45.72467134883909" lon="8.818483307797935"><ele>332.0</ele><time>2026-04-16T17:09:16.999Z</time></trkpt><trkpt lat="45.72471705952775" lon="8.818339030912629"><ele>332.0</ele><time>2026-04-16T17:09:17.999Z</time></trkpt><trkpt lat="45.72475979357933" lon="8.818204002909228"><ele>332.0</ele><time>2026-04-16T17:09:19Z</time></trkpt><trkpt lat="45.72480259516142" lon="8.818069150491064"><ele>332.40000000000003</ele><time>2026-04-16T17:09:20Z</time></trkpt><trkpt lat="45.72484688886804" lon="8.817931236783373"><ele>332.8</ele><time>2026-04-16T17:09:21Z</time></trkpt><trkpt lat="45.7248862064154" lon="8.817804330922224"><ele>333.2</ele><time>2026-04-16T17:09:22Z</time></trkpt><trkpt lat="45.7249228824126" lon="8.817688743667423"><ele>333.6</ele><time>2026-04-16T17:09:23Z</time></trkpt><trkpt lat="45.72495677680726" lon="8.817580521162022"><ele>334.0</ele><time>2026-04-16T17:09:24Z</time></trkpt><trkpt lat="45.724988103836914" lon="8.817481813318995"><ele>334.0</ele><time>2026-04-16T17:09:25Z</time></trkpt><trkpt lat="45.7250408566735" lon="8.817368289045067"><ele>334.0</ele><time>2026-04-16T17:09:27Z</time></trkpt><trkpt lat="45.72495886169309" lon="8.81743245736846"><ele>334.0</ele><time>2026-04-16T17:10:08Z</time></trkpt><trkpt lat="45.724915646467245" lon="8.817576490234062"><ele>334.0</ele><time>2026-04-16T17:10:09Z</time></trkpt><trkpt lat="45.7248614381735" lon="8.817746718858396"><ele>334.0</ele><time>2026-04-16T17:10:10Z</time></trkpt><trkpt lat="45.72480519583352" lon="8.817924086290484"><ele>333.5</ele><time>2026-04-16T17:10:10.999Z</time></trkpt><trkpt lat="45.72474969249962" lon="8.818100910585127"><ele>333.0</ele><time>2026-04-16T17:10:11.999Z</time></trkpt><trkpt lat="45.7246901267422" lon="8.818287043155786"><ele>332.5</ele><time>2026-04-16T17:10:12.999Z</time></trkpt><trkpt lat="45.72462814801131" lon="8.818489713779885"><ele>332.0</ele><time>2026-04-16T17:10:13.999Z</time></trkpt><trkpt lat="45.72456960751112" lon="8.818692409280366"><ele>332.0</ele><time>2026-04-16T17:10:14.999Z</time></trkpt><trkpt lat="45.72451523184135" lon="8.818877673696724"><ele>332.0</ele><time>2026-04-16T17:10:15.999Z</time></trkpt><trkpt lat="45.72445731084223" lon="8.81904974981982"><ele>332.0</ele><time>2026-04-16T17:10:16.999Z</time></trkpt><trkpt lat="45.72440229545042" lon="8.81921426554445"><ele>332.0</ele><time>2026-04-16T17:10:17.999Z</time></trkpt><trkpt lat="45.72433351702456" lon="8.819366821465556"><ele>331.5</ele><time>2026-04-16T17:10:18.999Z</time></trkpt><trkpt lat="45.72424723227223" lon="8.819501017902867"><ele>331.0</ele><time>2026-04-16T17:10:19.999Z</time></trkpt><trkpt lat="45.72414414321393" lon="8.819608511517389"><ele>330.5</ele><time>2026-04-16T17:10:20.999Z</time></trkpt><trkpt lat="45.72402173853" lon="8.819689707730376"><ele>330.0</ele><time>2026-04-16T17:10:21.999Z</time></trkpt><trkpt lat="45.72388914093712" lon="8.819735268915545"><ele>330.0</ele><time>2026-04-16T17:10:22.999Z</time></trkpt><trkpt lat="45.72374299366486" lon="8.819752776702845"><ele>330.0</ele><time>2026-04-16T17:10:23.999Z</time></trkpt><trkpt lat="45.72359183881757" lon="8.819737465346886"><ele>330.0</ele><time>2026-04-16T17:10:24.999Z</time></trkpt><trkpt lat="45.72342505830172" lon="8.819669984553796"><ele>330.3333333333333</ele><time>2026-04-16T17:10:25.999Z</time></trkpt><trkpt lat="45.72322127528976" lon="8.819623436269513"><ele>330.66666666666663</ele><time>2026-04-16T17:10:26.999Z</time></trkpt><trkpt lat="45.7230029931437" lon="8.819545164297827"><ele>331.0</ele><time>2026-04-16T17:10:27.999Z</time></trkpt><trkpt lat="45.722780062736305" lon="8.819463439525125"><ele>330.5</ele><time>2026-04-16T17:10:28.999Z</time></trkpt><trkpt lat="45.72254372134599" lon="8.819405512849544"><ele>330.0</ele><time>2026-04-16T17:10:29.999Z</time></trkpt><trkpt lat="45.72228425995954" lon="8.819373953804813"><ele>330.0</ele><time>2026-04-16T17:10:30.999Z</time></trkpt><trkpt lat="45.72200201317424" lon="8.81935323035913"><ele>330.0</ele><time>2026-04-16T17:10:31.999Z</time></trkpt><trkpt lat="45.721698863964434" lon="8.81934793981387"><ele>329.0</ele><time>2026-04-16T17:10:32.999Z</time></trkpt><trkpt lat="45.72139077994071" lon="8.819350141662985"><ele>328.0</ele><time>2026-04-16T17:10:33.999Z</time></trkpt><trkpt lat="45.7210674554729" lon="8.819363658286093"><ele>327.5</ele><time>2026-04-16T17:10:34.999Z</time></trkpt><trkpt lat="45.72075643632979" lon="8.819377903353743"><ele>327.0</ele><time>2026-04-16T17:10:35.999Z</time></trkpt><trkpt lat="45.72048165750344" lon="8.819391131765949"><ele>324.0</ele><time>2026-04-16T17:10:36.999Z</time></trkpt><trkpt lat="45.72022969638439" lon="8.819402046470252"><ele>321.0</ele><time>2026-04-16T17:10:37.999Z</time></trkpt><trkpt lat="45.719993173893336" lon="8.819409677647947"><ele>321.0</ele><time>2026-04-16T17:10:38.999Z</time></trkpt><trkpt lat="45.71977243656511" lon="8.819419229957033"><ele>321.0</ele><time>2026-04-16T17:10:39.999Z</time></trkpt><trkpt lat="45.71956305964592" lon="8.819424556261712"><ele>321.0</ele><time>2026-04-16T17:10:40.999Z</time></trkpt><trkpt lat="45.719364924463065" lon="8.819427328056264"><ele>320.6666666666667</ele><time>2026-04-16T17:10:41.999Z</time></trkpt><trkpt lat="45.71917889547886" lon="8.819431419901099"><ele>320.33333333333337</ele><time>2026-04-16T17:10:42.999Z</time></trkpt><trkpt lat="45.71900508269725" lon="8.819433567307495"><ele>320.0</ele><time>2026-04-16T17:10:43.999Z</time></trkpt><trkpt lat="45.71883784281089" lon="8.819436033808632"><ele>320.0</ele><time>2026-04-16T17:10:44.999Z</time></trkpt><trkpt lat="45.7186972089097" lon="8.8194343393154"><ele>320.0</ele><time>2026-04-16T17:10:45.999Z</time></trkpt><trkpt lat="45.71857247573855" lon="8.81942840014828"><ele>320.0</ele><time>2026-04-16T17:10:46.999Z</time></trkpt><trkpt lat="45.718466787429364" lon="8.81940618508247"><ele>320.0</ele><time>2026-04-16T17:10:47.999Z</time></trkpt><trkpt lat="45.71837825353935" lon="8.819359464848976"><ele>321.0</ele><time>2026-04-16T17:10:48.999Z</time></trkpt><trkpt lat="45.71828473393162" lon="8.819309777596377"><ele>322.0</ele><time>2026-04-16T17:10:49.999Z</time></trkpt><trkpt lat="45.71820628544395" lon="8.819242436778168"><ele>323.0</ele><time>2026-04-16T17:10:50.999Z</time></trkpt><trkpt lat="45.7181280306847" lon="8.819193534438245"><ele>324.0</ele><time>2026-04-16T17:10:51.999Z</time></trkpt><trkpt lat="45.718033541917585" lon="8.819188393342602"><ele>325.0</ele><time>2026-04-16T17:10:52.999Z</time></trkpt><trkpt lat="45.71792305570116" lon="8.819214821661344"><ele>325.0</ele><time>2026-04-16T17:10:53.999Z</time></trkpt><trkpt lat="45.717807151538445" lon="8.819234888843232"><ele>325.0</ele><time>2026-04-16T17:10:54.999Z</time></trkpt><trkpt lat="45.71767981664339" lon="8.819241295551965"><ele>325.0</ele><time>2026-04-16T17:10:55.999Z</time></trkpt><trkpt lat="45.717548256853526" lon="8.819238667757093"><ele>325.0</ele><time>2026-04-16T17:10:56.999Z</time></trkpt><trkpt lat="45.717417187683324" lon="8.819225453021271"><ele>324.5</ele><time>2026-04-16T17:10:57.999Z</time></trkpt><trkpt lat="45.717285366722834" lon="8.819207983214138"><ele>324.0</ele><time>2026-04-16T17:10:58.999Z</time></trkpt><trkpt lat="45.71715328087739" lon="8.819187537350324"><ele>323.5</ele><time>2026-04-16T17:10:59.999Z</time></trkpt><trkpt lat="45.71702235622149" lon="8.81916478330439"><ele>323.0</ele><time>2026-04-16T17:11:00.999Z</time></trkpt><trkpt lat="45.71689533782373" lon="8.819139341789267"><ele>321.75</ele><time>2026-04-16T17:11:01.999Z</time></trkpt><trkpt lat="45.716772638837526" lon="8.819112819819368"><ele>320.5</ele><time>2026-04-16T17:11:02.999Z</time></trkpt><trkpt lat="45.716656207007645" lon="8.819078505438759"><ele>319.25</ele><time>2026-04-16T17:11:03.999Z</time></trkpt><trkpt lat="45.716545124519655" lon="8.81903900198654"><ele>318.0</ele><time>2026-04-16T17:11:04.999Z</time></trkpt><trkpt lat="45.71644103222108" lon="8.81898607618087"><ele>318.0</ele><time>2026-04-16T17:11:05.999Z</time></trkpt><trkpt lat="45.71634272627482" lon="8.818918294471022"><ele>318.0</ele><time>2026-04-16T17:11:06.999Z</time></trkpt><trkpt lat="45.716251360595216" lon="8.818839744967638"><ele>318.0</ele><time>2026-04-16T17:11:07.999Z</time></trkpt><trkpt lat="45.71616683342791" lon="8.818761367806921"><ele>318.0</ele><time>2026-04-16T17:11:08.999Z</time></trkpt><trkpt lat="45.716071345857465" lon="8.818714470248016"><ele>318.0</ele><time>2026-04-16T17:11:09.999Z</time></trkpt><trkpt lat="45.71594717483276" lon="8.81870205974808"><ele>318.3333333333333</ele><time>2026-04-16T17:11:10.999Z</time></trkpt><trkpt lat="45.71580244736236" lon="8.818689004502582"><ele>318.66666666666663</ele><time>2026-04-16T17:11:11.999Z</time></trkpt><trkpt lat="45.71564809067259" lon="8.818639948578047"><ele>319.0</ele><time>2026-04-16T17:11:12.999Z</time></trkpt><trkpt lat="45.7154901648346" lon="8.818559148177007"><ele>319.0</ele><time>2026-04-16T17:11:13.999Z</time></trkpt><trkpt lat="45.71532354667334" lon="8.818468111592471"><ele>319.0</ele><time>2026-04-16T17:11:14.999Z</time></trkpt><trkpt lat="45.71515793969477" lon="8.81838415377449"><ele>319.0</ele><time>2026-04-16T17:11:15.999Z</time></trkpt><trkpt lat="45.71498926090651" lon="8.818297458556414"><ele>319.0</ele><time>2026-04-16T17:11:16.999Z</time></trkpt><trkpt lat="45.714817387138304" lon="8.818209829703754"><ele>319.0</ele><time>2026-04-16T17:11:17.999Z</time></trkpt><trkpt lat="45.714650435014455" lon="8.818125516415552"><ele>319.0</ele><time>2026-04-16T17:11:18.999Z</time></trkpt><trkpt lat="45.71449060567197" lon="8.818041598667467"><ele>318.3333333333333</ele><time>2026-04-16T17:11:19.999Z</time></trkpt><trkpt lat="45.71434121998585" lon="8.817966875335777"><ele>317.6666666666667</ele><time>2026-04-16T17:11:20.999Z</time></trkpt><trkpt lat="45.714193188630894" lon="8.817894062324756"><ele>317.0</ele><time>2026-04-16T17:11:21.999Z</time></trkpt><trkpt lat="45.71405649483599" lon="8.81782890755276"><ele>317.0</ele><time>2026-04-16T17:11:22.999Z</time></trkpt><trkpt lat="45.71392932716657" lon="8.817765657251199"><ele>317.0</ele><time>2026-04-16T17:11:24Z</time></trkpt><trkpt lat="45.713807766720215" lon="8.817706196168366"><ele>317.0</ele><time>2026-04-16T17:11:25Z</time></trkpt><trkpt lat="45.71369830920486" lon="8.817650977474173"><ele>317.0</ele><time>2026-04-16T17:11:26Z</time></trkpt><trkpt lat="45.713610349578474" lon="8.817606254793764"><ele>316.8</ele><time>2026-04-16T17:11:27Z</time></trkpt><trkpt lat="45.71354998879028" lon="8.817562634329509"><ele>316.6</ele><time>2026-04-16T17:11:28Z</time></trkpt><trkpt lat="45.71347118715458" lon="8.81752133881195"><ele>316.40000000000003</ele><time>2026-04-16T17:11:30Z</time></trkpt><trkpt lat="45.71354613956585" lon="8.817255442575906"><ele>316.2</ele><time>2026-04-16T17:11:32Z</time></trkpt><trkpt lat="45.71360761635036" lon="8.817211633071244"><ele>316.0</ele><time>2026-04-16T17:11:33Z</time></trkpt><trkpt lat="45.713686739147185" lon="8.817201581081124"><ele>316.0</ele><time>2026-04-16T17:11:34Z</time></trkpt><trkpt lat="45.71378309884682" lon="8.81722787940511"><ele>316.0</ele><time>2026-04-16T17:11:35Z</time></trkpt><trkpt lat="45.713892901125824" lon="8.817259408135227"><ele>316.0</ele><time>2026-04-16T17:11:36Z</time></trkpt><trkpt lat="45.71401630796269" lon="8.817290148414402"><ele>316.0</ele><time>2026-04-16T17:11:37Z</time></trkpt><trkpt lat="45.71414904714595" lon="8.817327350355361"><ele>316.0</ele><time>2026-04-16T17:11:38Z</time></trkpt><trkpt lat="45.71428128755881" lon="8.817363775536784"><ele>316.0</ele><time>2026-04-16T17:11:39Z</time></trkpt><trkpt lat="45.714416758069405" lon="8.817403225078685"><ele>316.0</ele><time>2026-04-16T17:11:40Z</time></trkpt><trkpt lat="45.71454491966481" lon="8.81744282321235"><ele>316.0</ele><time>2026-04-16T17:11:41Z</time></trkpt><trkpt lat="45.71466013137162" lon="8.817479752147603"><ele>316.8333333333333</ele><time>2026-04-16T17:11:42Z</time></trkpt><trkpt lat="45.714762774664216" lon="8.817511839511614"><ele>317.66666666666663</ele><time>2026-04-16T17:11:43Z</time></trkpt><trkpt lat="45.71485621302891" lon="8.817527988731442"><ele>318.5</ele><time>2026-04-16T17:11:44Z</time></trkpt><trkpt lat="45.714934556980424" lon="8.817513018703096"><ele>319.3333333333333</ele><time>2026-04-16T17:11:45Z</time></trkpt><trkpt lat="45.714998461852204" lon="8.817454821100618"><ele>320.1666666666667</ele><time>2026-04-16T17:11:46Z</time></trkpt><trkpt lat="45.71504818937918" lon="8.817358001597436"><ele>321.0</ele><time>2026-04-16T17:11:47Z</time></trkpt><trkpt lat="45.715070863979626" lon="8.817246785699744"><ele>321.0</ele><time>2026-04-16T17:11:48Z</time></trkpt><trkpt lat="45.715074317650455" lon="8.81714720822819"><ele>321.0</ele><time>2026-04-16T17:11:49Z</time></trkpt><trkpt lat="45.715062278929196" lon="8.817037208164736"><ele>321.0</ele><time>2026-04-16T17:11:51Z</time></trkpt><trkpt lat="45.71496055653488" lon="8.816947204537207"><ele>321.0</ele><time>2026-04-16T17:11:55Z</time></trkpt><trkpt lat="45.714881101556145" lon="8.816933842676788"><ele>321.0</ele><time>2026-04-16T17:11:56Z</time></trkpt><trkpt lat="45.71478738556809" lon="8.816940473158633"><ele>321.0</ele><time>2026-04-16T17:11:57Z</time></trkpt><trkpt lat="45.71468732592819" lon="8.816942620902944"><ele>321.0</ele><time>2026-04-16T17:11:58Z</time></trkpt><trkpt lat="45.71457311470073" lon="8.816940527891276"><ele>321.0</ele><time>2026-04-16T17:11:59Z</time></trkpt><trkpt lat="45.71446742417628" lon="8.816929410948662"><ele>321.0</ele><time>2026-04-16T17:12:00Z</time></trkpt><trkpt lat="45.714371417985994" lon="8.81691536011648"><ele>321.0</ele><time>2026-04-16T17:12:01Z</time></trkpt><trkpt lat="45.71427678208566" lon="8.816907544596436"><ele>321.0</ele><time>2026-04-16T17:12:02Z</time></trkpt><trkpt lat="45.71418667481907" lon="8.816883981252943"><ele>321.4</ele><time>2026-04-16T17:12:03Z</time></trkpt><trkpt lat="45.71409401215985" lon="8.816854510753434"><ele>321.8</ele><time>2026-04-16T17:12:04Z</time></trkpt><trkpt lat="45.71399233674123" lon="8.816820063642169"><ele>322.2</ele><time>2026-04-16T17:12:05Z</time></trkpt><trkpt lat="45.713871080314775" lon="8.816779899493701"><ele>322.59999999999997</ele><time>2026-04-16T17:12:06Z</time></trkpt><trkpt lat="45.71375005787538" lon="8.816744100889052"><ele>323.0</ele><time>2026-04-16T17:12:07Z</time></trkpt><trkpt lat="45.713633479626715" lon="8.81670421541311"><ele>321.5</ele><time>2026-04-16T17:12:08Z</time></trkpt><trkpt lat="45.71351347472083" lon="8.816660906310165"><ele>320.0</ele><time>2026-04-16T17:12:09Z</time></trkpt><trkpt lat="45.7134019050246" lon="8.816617690517203"><ele>318.5</ele><time>2026-04-16T17:12:10Z</time></trkpt><trkpt lat="45.71328648789709" lon="8.816582814793497"><ele>317.0</ele><time>2026-04-16T17:12:11Z</time></trkpt><trkpt lat="45.71317347628573" lon="8.816552376633927"><ele>317.0</ele><time>2026-04-16T17:12:12Z</time></trkpt><trkpt lat="45.71306512621013" lon="8.816521535027054"><ele>317.0</ele><time>2026-04-16T17:12:13Z</time></trkpt><trkpt lat="45.71296306479512" lon="8.816488760046195"><ele>317.0</ele><time>2026-04-16T17:12:14Z</time></trkpt><trkpt lat="45.71286282500343" lon="8.816455457494914"><ele>317.0</ele><time>2026-04-16T17:12:14.999Z</time></trkpt><trkpt lat="45.71276626913659" lon="8.816422353736302"><ele>317.0</ele><time>2026-04-16T17:12:15.999Z</time></trkpt><trkpt lat="45.71268121082613" lon="8.81639795016111"><ele>316.2</ele><time>2026-04-16T17:12:16.999Z</time></trkpt><trkpt lat="45.71257680012567" lon="8.81633953985065"><ele>315.4</ele><time>2026-04-16T17:12:18.999Z</time></trkpt><trkpt lat="45.71254496837661" lon="8.816207454312108"><ele>314.6</ele><time>2026-04-16T17:12:20.999Z</time></trkpt><trkpt lat="45.71256339101652" lon="8.81610988391272"><ele>313.8</ele><time>2026-04-16T17:12:21.999Z</time></trkpt><trkpt lat="45.71258013025465" lon="8.8160174222759"><ele>313.0</ele><time>2026-04-16T17:12:22.999Z</time></trkpt><trkpt lat="45.71260290699868" lon="8.81585263888531"><ele>313.0</ele><time>2026-04-16T17:12:24.999Z</time></trkpt><trkpt lat="45.71262299724476" lon="8.815707631904028"><ele>313.0</ele><time>2026-04-16T17:12:26.999Z</time></trkpt><trkpt lat="45.7126373682715" lon="8.815557324346624"><ele>313.0</ele><time>2026-04-16T17:12:28.999Z</time></trkpt><trkpt lat="45.7126578089069" lon="8.815398895029768"><ele>313.0</ele><time>2026-04-16T17:12:30.999Z</time></trkpt><trkpt lat="45.71268171260181" lon="8.815249961463442"><ele>313.0</ele><time>2026-04-16T17:12:32.999Z</time></trkpt><trkpt lat="45.712700966688345" lon="8.815081521099382"><ele>313.6</ele><time>2026-04-16T17:12:34.999Z</time></trkpt><trkpt lat="45.71272794904545" lon="8.814910013001132"><ele>314.20000000000005</ele><time>2026-04-16T17:12:36.999Z</time></trkpt><trkpt lat="45.7127548139341" lon="8.814824431515602"><ele>314.8</ele><time>2026-04-16T17:12:37.999Z</time></trkpt><trkpt lat="45.71280088182918" lon="8.814755950079268"><ele>315.40000000000003</ele><time>2026-04-16T17:12:38.999Z</time></trkpt><trkpt lat="45.71283884607997" lon="8.814619287367746"><ele>316.0</ele><time>2026-04-16T17:12:40.999Z</time></trkpt><trkpt lat="45.71280793686371" lon="8.814478017349995"><ele>316.0</ele><time>2026-04-16T17:12:42.999Z</time></trkpt><trkpt lat="45.712751832083676" lon="8.814417280943111"><ele>316.0</ele><time>2026-04-16T17:13:16.999Z</time></trkpt><trkpt lat="45.71272523724675" lon="8.814329085407259"><ele>309.0</ele><time>2026-04-16T17:15:06.999Z</time></trkpt></trkseg></trk></gpx>